sensor_id;sensor_type;location;lat;lon;timestamp;pressure;altitude;pressure_sealevel;temperature;humidity
19005;BME280;9635;52.078;8.648;2023-07-29T00:04:52;99600.59;;;19.23;75.39
19005;BME280;9635;52.078;8.648;2023-07-29T00:09:55;99607.78;;;19.38;74.81
19005;BME280;9635;52.078;8.648;2023-07-29T00:14:58;99603.16;;;19.32;75.01
19005;BME280;9635;52.078;8.648;2023-07-29T00:20:03;99605.28;;;19.43;74.52
19005;BME280;9635;52.078;8.648;2023-07-29T00:25:09;99607.91;;;19.23;74.90
19005;BME280;9635;52.078;8.648;2023-07-29T00:30:12;99603.16;;;19.32;74.50
19005;BME280;9635;52.078;8.648;2023-07-29T00:35:18;99597.72;;;19.38;74.17
19005;BME280;9635;52.078;8.648;2023-07-29T00:40:21;99601.22;;;19.26;75.04
19005;BME280;9635;52.078;8.648;2023-07-29T00:45:25;99581.88;;;19.14;75.56
19005;BME280;9635;52.078;8.648;2023-07-29T00:50:32;99600.75;;;19.15;75.72
19005;BME280;9635;52.078;8.648;2023-07-29T00:55:35;99606.03;;;19.23;75.31
19005;BME280;9635;52.078;8.648;2023-07-29T01:00:38;99588.00;;;18.88;76.91
19005;BME280;9635;52.078;8.648;2023-07-29T01:05:50;99587.72;;;18.83;76.94
19005;BME280;9635;52.078;8.648;2023-07-29T01:11:05;99573.13;;;19.25;75.36
19005;BME280;9635;52.078;8.648;2023-07-29T01:16:15;99574.94;;;19.11;75.37
19005;BME280;9635;52.078;8.648;2023-07-29T01:21:21;99569.91;;;19.08;75.71
19005;BME280;9635;52.078;8.648;2023-07-29T01:26:26;99562.63;;;19.15;75.59
19005;BME280;9635;52.078;8.648;2023-07-29T01:31:33;99568.97;;;18.94;76.15
19005;BME280;9635;52.078;8.648;2023-07-29T01:36:37;99581.56;;;18.95;75.98
19005;BME280;9635;52.078;8.648;2023-07-29T01:41:44;99571.78;;;19.08;75.58
19005;BME280;9635;52.078;8.648;2023-07-29T01:46:47;99563.53;;;18.94;76.35
19005;BME280;9635;52.078;8.648;2023-07-29T01:51:51;99555.84;;;19.05;75.99
19005;BME280;9635;52.078;8.648;2023-07-29T01:56:56;99560.88;;;19.01;76.00
19005;BME280;9635;52.078;8.648;2023-07-29T02:01:59;99549.38;;;19.06;76.00
19005;BME280;9635;52.078;8.648;2023-07-29T02:07:01;99561.50;;;19.03;76.32
19005;BME280;9635;52.078;8.648;2023-07-29T02:12:06;99554.19;;;19.04;76.13
19005;BME280;9635;52.078;8.648;2023-07-29T02:17:12;99544.84;;;18.85;76.71
19005;BME280;9635;52.078;8.648;2023-07-29T02:22:16;99543.84;;;18.92;76.86
19005;BME280;9635;52.078;8.648;2023-07-29T02:27:21;99539.69;;;18.68;78.27
19005;BME280;9635;52.078;8.648;2023-07-29T02:32:24;99550.16;;;18.93;77.61
19005;BME280;9635;52.078;8.648;2023-07-29T02:37:27;99544.13;;;18.76;78.15
19005;BME280;9635;52.078;8.648;2023-07-29T02:42:32;99547.22;;;18.73;78.75
19005;BME280;9635;52.078;8.648;2023-07-29T02:47:35;99555.53;;;18.65;79.18
19005;BME280;9635;52.078;8.648;2023-07-29T02:52:38;99545.16;;;18.47;80.28
19005;BME280;9635;52.078;8.648;2023-07-29T02:57:43;99536.78;;;18.48;80.46
19005;BME280;9635;52.078;8.648;2023-07-29T03:02:46;99531.03;;;18.58;80.08
19005;BME280;9635;52.078;8.648;2023-07-29T03:07:49;99522.22;;;18.56;79.90
19005;BME280;9635;52.078;8.648;2023-07-29T03:12:55;99530.25;;;18.43;80.40
19005;BME280;9635;52.078;8.648;2023-07-29T03:17:58;99517.81;;;18.55;80.09
19005;BME280;9635;52.078;8.648;2023-07-29T03:23:01;99518.84;;;18.54;80.23
19005;BME280;9635;52.078;8.648;2023-07-29T03:28:05;99513.88;;;18.57;79.89
19005;BME280;9635;52.078;8.648;2023-07-29T03:33:08;99514.94;;;18.63;79.58
19005;BME280;9635;52.078;8.648;2023-07-29T03:38:11;99511.84;;;18.66;79.35
19005;BME280;9635;52.078;8.648;2023-07-29T03:43:16;99507.66;;;18.70;78.91
19005;BME280;9635;52.078;8.648;2023-07-29T03:48:19;99510.44;;;18.77;78.97
19005;BME280;9635;52.078;8.648;2023-07-29T03:53:22;99511.16;;;18.86;78.46
19005;BME280;9635;52.078;8.648;2023-07-29T03:58:26;99517.28;;;18.94;77.99
19005;BME280;9635;52.078;8.648;2023-07-29T04:03:29;99503.91;;;18.99;78.20
19005;BME280;9635;52.078;8.648;2023-07-29T04:08:32;99510.44;;;19.05;77.68
19005;BME280;9635;52.078;8.648;2023-07-29T04:13:37;99508.34;;;19.07;77.75
19005;BME280;9635;52.078;8.648;2023-07-29T04:18:39;99496.19;;;19.03;78.03
19005;BME280;9635;52.078;8.648;2023-07-29T04:23:42;99508.13;;;19.09;78.20
19005;BME280;9635;52.078;8.648;2023-07-29T04:28:47;99491.63;;;19.17;77.76
19005;BME280;9635;52.078;8.648;2023-07-29T04:33:49;99496.72;;;19.27;77.74
19005;BME280;9635;52.078;8.648;2023-07-29T04:38:52;99499.69;;;19.32;76.95
19005;BME280;9635;52.078;8.648;2023-07-29T04:43:56;99490.44;;;19.26;76.51
19005;BME280;9635;52.078;8.648;2023-07-29T04:48:59;99487.06;;;19.24;76.27
19005;BME280;9635;52.078;8.648;2023-07-29T04:54:02;99494.59;;;19.15;76.48
19005;BME280;9635;52.078;8.648;2023-07-29T04:59:07;99487.66;;;19.13;76.96
19005;BME280;9635;52.078;8.648;2023-07-29T05:04:10;99489.81;;;19.24;76.91
19005;BME280;9635;52.078;8.648;2023-07-29T05:09:14;99487.72;;;19.33;76.69
19005;BME280;9635;52.078;8.648;2023-07-29T05:14:19;99477.97;;;19.45;76.88
19005;BME280;9635;52.078;8.648;2023-07-29T05:19:22;99477.78;;;19.53;76.71
19005;BME280;9635;52.078;8.648;2023-07-29T05:24:25;99485.28;;;19.44;77.56
19005;BME280;9635;52.078;8.648;2023-07-29T05:29:29;99478.50;;;19.27;77.96
19005;BME280;9635;52.078;8.648;2023-07-29T05:34:33;99475.22;;;19.45;77.63
19005;BME280;9635;52.078;8.648;2023-07-29T05:39:35;99471.94;;;19.63;76.91
19005;BME280;9635;52.078;8.648;2023-07-29T05:44:40;99490.41;;;19.67;76.63
19005;BME280;9635;52.078;8.648;2023-07-29T05:49:43;99486.63;;;19.68;76.65
19005;BME280;9635;52.078;8.648;2023-07-29T05:54:46;99475.34;;;19.78;76.37
19005;BME280;9635;52.078;8.648;2023-07-29T05:59:50;99471.16;;;19.76;76.41
19005;BME280;9635;52.078;8.648;2023-07-29T06:04:53;99464.88;;;19.82;76.13
19005;BME280;9635;52.078;8.648;2023-07-29T06:09:57;99472.84;;;19.83;76.49
19005;BME280;9635;52.078;8.648;2023-07-29T06:15:01;99494.81;;;19.68;76.67
19005;BME280;9635;52.078;8.648;2023-07-29T06:20:05;99494.38;;;19.72;76.58
19005;BME280;9635;52.078;8.648;2023-07-29T06:25:08;99495.81;;;19.61;76.99
19005;BME280;9635;52.078;8.648;2023-07-29T06:30:14;99502.16;;;19.27;78.80
19005;BME280;9635;52.078;8.648;2023-07-29T06:35:17;99506.69;;;19.54;77.57
19005;BME280;9635;52.078;8.648;2023-07-29T06:40:20;99505.69;;;19.68;77.64
19005;BME280;9635;52.078;8.648;2023-07-29T06:45:24;99490.25;;;19.96;76.75
19005;BME280;9635;52.078;8.648;2023-07-29T06:50:27;99448.31;;;20.23;75.30
19005;BME280;9635;52.078;8.648;2023-07-29T06:55:30;99482.94;;;20.16;74.94
19005;BME280;9635;52.078;8.648;2023-07-29T07:00:34;99484.00;;;20.28;74.61
19005;BME280;9635;52.078;8.648;2023-07-29T07:05:37;99501.81;;;20.18;75.54
19005;BME280;9635;52.078;8.648;2023-07-29T07:10:40;99510.59;;;20.00;76.33
19005;BME280;9635;52.078;8.648;2023-07-29T07:15:44;99526.41;;;19.56;78.74
19005;BME280;9635;52.078;8.648;2023-07-29T07:20:47;99544.00;;;19.60;78.20
19005;BME280;9635;52.078;8.648;2023-07-29T07:25:50;99529.84;;;19.78;77.61
19005;BME280;9635;52.078;8.648;2023-07-29T07:30:55;99528.44;;;20.09;76.34
19005;BME280;9635;52.078;8.648;2023-07-29T07:35:58;99531.13;;;19.41;80.78
19005;BME280;9635;52.078;8.648;2023-07-29T07:41:00;99538.84;;;17.82;100.00
19005;BME280;9635;52.078;8.648;2023-07-29T07:46:05;99535.63;;;17.57;100.00
19005;BME280;9635;52.078;8.648;2023-07-29T07:51:11;99530.78;;;18.10;98.84
19005;BME280;9635;52.078;8.648;2023-07-29T07:56:15;99536.31;;;18.66;95.23
19005;BME280;9635;52.078;8.648;2023-07-29T08:01:19;99520.88;;;19.01;96.21
19005;BME280;9635;52.078;8.648;2023-07-29T08:06:22;99530.84;;;18.88;89.51
19005;BME280;9635;52.078;8.648;2023-07-29T08:11:25;99518.25;;;19.15;88.39
19005;BME280;9635;52.078;8.648;2023-07-29T08:16:29;99512.72;;;19.01;82.86
19005;BME280;9635;52.078;8.648;2023-07-29T08:21:33;99523.75;;;19.28;83.19
19005;BME280;9635;52.078;8.648;2023-07-29T08:26:35;99525.50;;;19.49;81.96
19005;BME280;9635;52.078;8.648;2023-07-29T08:31:40;99540.28;;;18.92;78.90
19005;BME280;9635;52.078;8.648;2023-07-29T08:36:43;99539.56;;;19.11;77.72
19005;BME280;9635;52.078;8.648;2023-07-29T08:41:51;99547.19;;;18.66;74.68
19005;BME280;9635;52.078;8.648;2023-07-29T08:46:59;99556.91;;;18.54;72.42
19005;BME280;9635;52.078;8.648;2023-07-29T08:52:04;99550.59;;;19.79;70.13
19005;BME280;9635;52.078;8.648;2023-07-29T08:57:07;99541.69;;;20.19;66.77
19005;BME280;9635;52.078;8.648;2023-07-29T09:02:11;99535.16;;;20.26;65.51
19005;BME280;9635;52.078;8.648;2023-07-29T09:07:14;99538.97;;;21.05;64.23
19005;BME280;9635;52.078;8.648;2023-07-29T09:12:18;99541.91;;;20.77;61.12
19005;BME280;9635;52.078;8.648;2023-07-29T09:17:23;99538.72;;;21.13;56.87
19005;BME280;9635;52.078;8.648;2023-07-29T09:22:27;99531.09;;;21.35;56.47
19005;BME280;9635;52.078;8.648;2023-07-29T09:27:30;99540.22;;;20.76;57.40
19005;BME280;9635;52.078;8.648;2023-07-29T09:32:39;99536.84;;;20.21;58.81
19005;BME280;9635;52.078;8.648;2023-07-29T09:37:43;99547.38;;;20.70;58.89
19005;BME280;9635;52.078;8.648;2023-07-29T09:42:50;99539.28;;;21.35;56.79
19005;BME280;9635;52.078;8.648;2023-07-29T09:47:57;99551.94;;;21.81;55.47
19005;BME280;9635;52.078;8.648;2023-07-29T09:53:00;99558.31;;;22.07;55.05
19005;BME280;9635;52.078;8.648;2023-07-29T09:58:04;99558.50;;;21.80;54.29
19005;BME280;9635;52.078;8.648;2023-07-29T10:03:11;99546.38;;;22.01;54.29
19005;BME280;9635;52.078;8.648;2023-07-29T10:08:16;99554.00;;;21.93;54.51
19005;BME280;9635;52.078;8.648;2023-07-29T10:13:20;99558.91;;;21.77;54.15
19005;BME280;9635;52.078;8.648;2023-07-29T10:18:25;99543.75;;;22.13;53.00
19005;BME280;9635;52.078;8.648;2023-07-29T10:23:35;99538.31;;;22.45;51.67
19005;BME280;9635;52.078;8.648;2023-07-29T10:28:41;99546.19;;;22.85;51.71
19005;BME280;9635;52.078;8.648;2023-07-29T10:33:50;99536.16;;;23.71;49.59
19005;BME280;9635;52.078;8.648;2023-07-29T10:38:54;99536.50;;;23.81;48.52
19005;BME280;9635;52.078;8.648;2023-07-29T10:43:57;99540.97;;;23.75;48.33
19005;BME280;9635;52.078;8.648;2023-07-29T10:49:01;99523.38;;;22.91;50.12
19005;BME280;9635;52.078;8.648;2023-07-29T10:54:11;99525.88;;;22.92;49.34
19005;BME280;9635;52.078;8.648;2023-07-29T10:59:32;99547.16;;;22.47;50.02
19005;BME280;9635;52.078;8.648;2023-07-29T11:04:46;99548.06;;;22.84;49.41
19005;BME280;9635;52.078;8.648;2023-07-29T11:10:01;99540.00;;;23.33;48.78
19005;BME280;9635;52.078;8.648;2023-07-29T11:15:12;99544.94;;;22.81;50.35
19005;BME280;9635;52.078;8.648;2023-07-29T11:20:18;99539.69;;;23.23;49.55
19005;BME280;9635;52.078;8.648;2023-07-29T11:25:22;99551.38;;;23.66;48.50
19005;BME280;9635;52.078;8.648;2023-07-29T11:30:26;99547.34;;;22.14;52.23
19005;BME280;9635;52.078;8.648;2023-07-29T11:35:32;99540.63;;;23.35;49.72
19005;BME280;9635;52.078;8.648;2023-07-29T11:40:35;99537.59;;;24.22;48.76
19005;BME280;9635;52.078;8.648;2023-07-29T11:45:40;99536.06;;;24.38;47.16
19005;BME280;9635;52.078;8.648;2023-07-29T11:50:54;99537.81;;;24.86;45.63
19005;BME280;9635;52.078;8.648;2023-07-29T11:55:58;99527.97;;;24.43;46.07
19005;BME280;9635;52.078;8.648;2023-07-29T12:01:01;99528.88;;;24.90;46.24
19005;BME280;9635;52.078;8.648;2023-07-29T12:06:06;99530.97;;;25.35;44.31
19005;BME280;9635;52.078;8.648;2023-07-29T12:11:09;99535.81;;;24.27;46.79
19005;BME280;9635;52.078;8.648;2023-07-29T12:16:16;99540.56;;;23.90;48.51
19005;BME280;9635;52.078;8.648;2023-07-29T12:21:21;99533.00;;;24.04;47.11
19005;BME280;9635;52.078;8.648;2023-07-29T12:26:27;99510.47;;;25.95;44.61
19005;BME280;9635;52.078;8.648;2023-07-29T12:31:33;99514.13;;;26.46;43.44
19005;BME280;9635;52.078;8.648;2023-07-29T12:36:42;99527.00;;;24.37;46.70
19005;BME280;9635;52.078;8.648;2023-07-29T12:41:46;99535.22;;;24.37;47.09
19005;BME280;9635;52.078;8.648;2023-07-29T12:46:49;99533.53;;;23.46;48.52
19005;BME280;9635;52.078;8.648;2023-07-29T12:51:53;99523.72;;;22.76;50.53
19005;BME280;9635;52.078;8.648;2023-07-29T12:56:56;99525.75;;;24.21;48.33
19005;BME280;9635;52.078;8.648;2023-07-29T13:01:59;99503.66;;;24.93;46.80
19005;BME280;9635;52.078;8.648;2023-07-29T13:07:04;99506.81;;;25.78;44.64
19005;BME280;9635;52.078;8.648;2023-07-29T13:12:08;99498.38;;;26.59;42.97
19005;BME280;9635;52.078;8.648;2023-07-29T13:17:11;99515.34;;;25.76;45.12
19005;BME280;9635;52.078;8.648;2023-07-29T13:22:15;99527.22;;;25.94;43.75
19005;BME280;9635;52.078;8.648;2023-07-29T13:27:18;99517.56;;;25.39;46.33
19005;BME280;9635;52.078;8.648;2023-07-29T13:32:21;99509.75;;;24.18;47.26
19005;BME280;9635;52.078;8.648;2023-07-29T13:37:25;99523.19;;;24.38;47.30
19005;BME280;9635;52.078;8.648;2023-07-29T13:42:28;99531.16;;;25.98;43.75
19005;BME280;9635;52.078;8.648;2023-07-29T13:47:31;99533.28;;;24.80;46.01
19005;BME280;9635;52.078;8.648;2023-07-29T13:52:36;99523.97;;;24.69;46.61
19005;BME280;9635;52.078;8.648;2023-07-29T13:57:39;99511.88;;;26.60;43.81
19005;BME280;9635;52.078;8.648;2023-07-29T14:02:42;99528.47;;;25.22;45.97
19005;BME280;9635;52.078;8.648;2023-07-29T14:07:47;99519.72;;;24.31;48.05
19005;BME280;9635;52.078;8.648;2023-07-29T14:12:50;99526.16;;;25.54;45.50
19005;BME280;9635;52.078;8.648;2023-07-29T14:17:53;99532.09;;;26.03;43.90
19005;BME280;9635;52.078;8.648;2023-07-29T14:22:57;99512.03;;;25.91;44.54
19005;BME280;9635;52.078;8.648;2023-07-29T14:28:00;99517.75;;;25.73;44.67
19005;BME280;9635;52.078;8.648;2023-07-29T14:33:03;99525.28;;;25.13;46.29
19005;BME280;9635;52.078;8.648;2023-07-29T14:38:07;99525.88;;;24.80;46.32
19005;BME280;9635;52.078;8.648;2023-07-29T14:43:10;99545.94;;;24.81;47.26
19005;BME280;9635;52.078;8.648;2023-07-29T14:48:13;99533.59;;;24.06;48.88
19005;BME280;9635;52.078;8.648;2023-07-29T14:53:17;99533.06;;;23.12;50.40
19005;BME280;9635;52.078;8.648;2023-07-29T14:58:20;99532.50;;;22.85;50.76
19005;BME280;9635;52.078;8.648;2023-07-29T15:03:24;99543.59;;;22.08;51.91
19005;BME280;9635;52.078;8.648;2023-07-29T15:08:30;99566.13;;;21.52;57.83
19005;BME280;9635;52.078;8.648;2023-07-29T15:13:33;99607.38;;;17.99;77.88
19005;BME280;9635;52.078;8.648;2023-07-29T15:18:35;99610.41;;;15.77;100.00
19005;BME280;9635;52.078;8.648;2023-07-29T15:23:40;99615.56;;;14.83;100.00
19005;BME280;9635;52.078;8.648;2023-07-29T15:28:43;99636.03;;;14.53;100.00
19005;BME280;9635;52.078;8.648;2023-07-29T15:33:46;99649.53;;;14.69;100.00
19005;BME280;9635;52.078;8.648;2023-07-29T15:38:50;99639.84;;;15.24;100.00
19005;BME280;9635;52.078;8.648;2023-07-29T15:43:53;99637.38;;;16.01;100.00
19005;BME280;9635;52.078;8.648;2023-07-29T15:48:57;99635.59;;;16.17;100.00
19005;BME280;9635;52.078;8.648;2023-07-29T15:54:02;99637.16;;;16.11;100.00
19005;BME280;9635;52.078;8.648;2023-07-29T15:59:05;99647.56;;;16.30;100.00
19005;BME280;9635;52.078;8.648;2023-07-29T16:04:08;99658.25;;;16.32;100.00
19005;BME280;9635;52.078;8.648;2023-07-29T16:09:12;99657.81;;;16.43;100.00
19005;BME280;9635;52.078;8.648;2023-07-29T16:14:15;99648.00;;;17.03;100.00
19005;BME280;9635;52.078;8.648;2023-07-29T16:19:23;99657.59;;;17.14;100.00
19005;BME280;9635;52.078;8.648;2023-07-29T16:24:28;99629.34;;;17.23;100.00
19005;BME280;9635;52.078;8.648;2023-07-29T16:29:30;99628.28;;;17.09;100.00
19005;BME280;9635;52.078;8.648;2023-07-29T16:34:33;99623.41;;;17.79;98.20
19005;BME280;9635;52.078;8.648;2023-07-29T16:39:37;99620.91;;;17.77;98.34
19005;BME280;9635;52.078;8.648;2023-07-29T16:44:40;99618.88;;;17.35;93.96
19005;BME280;9635;52.078;8.648;2023-07-29T16:49:43;99619.25;;;18.34;100.00
19005;BME280;9635;52.078;8.648;2023-07-29T16:54:48;99600.38;;;18.97;96.21
19005;BME280;9635;52.078;8.648;2023-07-29T16:59:50;99608.03;;;20.99;95.97
19005;BME280;9635;52.078;8.648;2023-07-29T17:04:54;99608.28;;;23.71;85.15
19005;BME280;9635;52.078;8.648;2023-07-29T17:09:58;99607.38;;;23.96;78.87
19005;BME280;9635;52.078;8.648;2023-07-29T17:15:01;99605.44;;;25.86;69.06
19005;BME280;9635;52.078;8.648;2023-07-29T17:20:05;99598.50;;;26.69;68.48
19005;BME280;9635;52.078;8.648;2023-07-29T17:25:10;99606.44;;;26.66;57.17
19005;BME280;9635;52.078;8.648;2023-07-29T17:30:13;99607.66;;;28.03;52.10
19005;BME280;9635;52.078;8.648;2023-07-29T17:35:15;99610.59;;;27.36;51.17
19005;BME280;9635;52.078;8.648;2023-07-29T17:40:20;99607.13;;;27.84;51.89
19005;BME280;9635;52.078;8.648;2023-07-29T17:45:23;99604.31;;;28.88;46.63
19005;BME280;9635;52.078;8.648;2023-07-29T17:50:26;99606.91;;;26.46;49.14
19005;BME280;9635;52.078;8.648;2023-07-29T17:55:37;99614.84;;;23.70;56.83
19005;BME280;9635;52.078;8.648;2023-07-29T18:00:40;99627.53;;;25.04;52.91
19005;BME280;9635;52.078;8.648;2023-07-29T18:05:43;99632.09;;;24.38;53.20
19005;BME280;9635;52.078;8.648;2023-07-29T18:10:47;99632.72;;;22.22;60.01
19005;BME280;9635;52.078;8.648;2023-07-29T18:15:51;99633.22;;;20.68;64.84
19005;BME280;9635;52.078;8.648;2023-07-29T18:20:54;99634.63;;;19.76;68.18
19005;BME280;9635;52.078;8.648;2023-07-29T18:25:58;99635.44;;;19.41;70.31
19005;BME280;9635;52.078;8.648;2023-07-29T18:31:02;99633.84;;;19.19;70.69
19005;BME280;9635;52.078;8.648;2023-07-29T18:36:05;99638.16;;;19.07;71.34
19005;BME280;9635;52.078;8.648;2023-07-29T18:41:09;99640.38;;;18.75;72.25
19005;BME280;9635;52.078;8.648;2023-07-29T18:46:12;99648.22;;;18.63;72.63
19005;BME280;9635;52.078;8.648;2023-07-29T18:51:15;99653.69;;;18.48;73.00
19005;BME280;9635;52.078;8.648;2023-07-29T18:56:19;99675.38;;;18.20;74.47
19005;BME280;9635;52.078;8.648;2023-07-29T19:01:22;99679.22;;;17.96;74.95
19005;BME280;9635;52.078;8.648;2023-07-29T19:06:25;99687.69;;;17.86;75.20
19005;BME280;9635;52.078;8.648;2023-07-29T19:11:29;99695.19;;;17.69;76.05
19005;BME280;9635;52.078;8.648;2023-07-29T19:16:32;99683.38;;;17.77;76.18
19005;BME280;9635;52.078;8.648;2023-07-29T19:21:35;99688.72;;;17.85;75.56
19005;BME280;9635;52.078;8.648;2023-07-29T19:26:39;99684.69;;;17.81;75.49
19005;BME280;9635;52.078;8.648;2023-07-29T19:31:42;99686.44;;;17.74;76.53
19005;BME280;9635;52.078;8.648;2023-07-29T19:36:46;99687.03;;;17.69;76.77
19005;BME280;9635;52.078;8.648;2023-07-29T19:41:50;99677.09;;;17.77;76.72
19005;BME280;9635;52.078;8.648;2023-07-29T19:46:53;99689.06;;;17.82;76.58
19005;BME280;9635;52.078;8.648;2023-07-29T19:51:56;99679.97;;;17.90;76.29
19005;BME280;9635;52.078;8.648;2023-07-29T19:57:04;99690.66;;;17.91;76.53
19005;BME280;9635;52.078;8.648;2023-07-29T20:02:08;99689.16;;;17.89;76.35
19005;BME280;9635;52.078;8.648;2023-07-29T20:07:11;99680.38;;;17.87;76.83
19005;BME280;9635;52.078;8.648;2023-07-29T20:12:15;99693.88;;;17.80;76.79
19005;BME280;9635;52.078;8.648;2023-07-29T20:17:18;99692.25;;;17.71;76.98
19005;BME280;9635;52.078;8.648;2023-07-29T20:22:21;99690.97;;;17.67;76.89
19005;BME280;9635;52.078;8.648;2023-07-29T20:27:25;99694.44;;;17.61;77.40
19005;BME280;9635;52.078;8.648;2023-07-29T20:32:28;99695.28;;;17.61;77.37
19005;BME280;9635;52.078;8.648;2023-07-29T20:37:32;99691.13;;;17.65;77.11
19005;BME280;9635;52.078;8.648;2023-07-29T20:42:36;99688.03;;;17.68;77.01
19005;BME280;9635;52.078;8.648;2023-07-29T20:47:39;99680.56;;;17.70;77.29
19005;BME280;9635;52.078;8.648;2023-07-29T20:52:42;99676.44;;;17.75;77.31
19005;BME280;9635;52.078;8.648;2023-07-29T20:57:46;99675.88;;;17.79;76.97
19005;BME280;9635;52.078;8.648;2023-07-29T21:02:49;99665.50;;;17.83;76.89
19005;BME280;9635;52.078;8.648;2023-07-29T21:07:52;99663.59;;;17.83;76.74
19005;BME280;9635;52.078;8.648;2023-07-29T21:12:57;99663.78;;;17.82;76.93
19005;BME280;9635;52.078;8.648;2023-07-29T21:17:59;99659.94;;;17.76;76.80
19005;BME280;9635;52.078;8.648;2023-07-29T21:23:02;99659.22;;;17.67;77.13
19005;BME280;9635;52.078;8.648;2023-07-29T21:28:07;99654.16;;;17.64;77.15
19005;BME280;9635;52.078;8.648;2023-07-29T21:33:10;99658.25;;;17.60;77.41
19005;BME280;9635;52.078;8.648;2023-07-29T21:38:13;99667.00;;;17.56;77.51
19005;BME280;9635;52.078;8.648;2023-07-29T21:43:32;99662.03;;;17.44;77.58
19005;BME280;9635;52.078;8.648;2023-07-29T21:48:35;99671.03;;;17.45;77.83
19005;BME280;9635;52.078;8.648;2023-07-29T21:53:38;99673.06;;;17.43;77.61
19005;BME280;9635;52.078;8.648;2023-07-29T21:58:42;99671.41;;;17.42;77.93
19005;BME280;9635;52.078;8.648;2023-07-29T22:03:45;99669.22;;;17.37;77.79
19005;BME280;9635;52.078;8.648;2023-07-29T22:08:48;99676.13;;;17.25;78.42
19005;BME280;9635;52.078;8.648;2023-07-29T22:13:52;99662.75;;;17.23;78.26
19005;BME280;9635;52.078;8.648;2023-07-29T22:18:55;99676.69;;;17.20;78.60
19005;BME280;9635;52.078;8.648;2023-07-29T22:23:58;99673.16;;;17.20;79.38
19005;BME280;9635;52.078;8.648;2023-07-29T22:29:02;99672.41;;;17.26;79.32
19005;BME280;9635;52.078;8.648;2023-07-29T22:34:05;99677.09;;;17.32;79.53
19005;BME280;9635;52.078;8.648;2023-07-29T22:39:08;99672.50;;;17.33;79.70
19005;BME280;9635;52.078;8.648;2023-07-29T22:44:13;99689.28;;;17.36;79.92
19005;BME280;9635;52.078;8.648;2023-07-29T22:49:15;99676.81;;;17.42;79.75
19005;BME280;9635;52.078;8.648;2023-07-29T22:54:18;99676.34;;;17.38;79.35
19005;BME280;9635;52.078;8.648;2023-07-29T22:59:23;99690.47;;;17.34;79.41
19005;BME280;9635;52.078;8.648;2023-07-29T23:04:26;99693.75;;;17.29;79.50
19005;BME280;9635;52.078;8.648;2023-07-29T23:09:29;99698.44;;;17.12;80.63
19005;BME280;9635;52.078;8.648;2023-07-29T23:14:33;99697.97;;;17.09;81.32
19005;BME280;9635;52.078;8.648;2023-07-29T23:19:36;99711.56;;;17.09;82.37
19005;BME280;9635;52.078;8.648;2023-07-29T23:24:39;99707.97;;;17.08;82.45
19005;BME280;9635;52.078;8.648;2023-07-29T23:29:43;99702.34;;;16.72;84.57
19005;BME280;9635;52.078;8.648;2023-07-29T23:34:46;99707.75;;;16.72;83.92
19005;BME280;9635;52.078;8.648;2023-07-29T23:39:49;99711.97;;;16.51;84.88
19005;BME280;9635;52.078;8.648;2023-07-29T23:44:53;99706.16;;;16.63;84.32
19005;BME280;9635;52.078;8.648;2023-07-29T23:49:56;99712.50;;;16.47;84.88
19005;BME280;9635;52.078;8.648;2023-07-29T23:54:59;99714.59;;;16.68;83.68
